Time;durP1;ratioP1;P1;durP2;ratioP2;P2;SDS_P1;SDS_P2;PMS_P1;PMS_P2;Temp;Humidity;BMP_temperature;BMP_pressure;BME280_temperature;BME280_humidity;BME280_pressure;Samples;Min_cycle;Max_cycle;Signal;HPM_P1;HPM_P2
2022/01/17 00:01:08;;;;;;;;;38.50;31.00;;;;;8.37;75.42;103177.34;5008112;28;46203;-55
2022/01/17 00:03:34;;;;;;;;;32.00;27.75;;;;;8.38;75.11;103173.84;5008361;28;45895;-56
2022/01/17 00:06:00;;;;;;;;;39.25;28.00;;;;;8.40;75.11;103176.44;5011062;28;45487;-56
2022/01/17 00:08:26;;;;;;;;;42.50;31.00;;;;;8.40;75.04;103181.69;5009774;28;45692;-56
2022/01/17 00:10:51;;;;;;;;;37.50;28.00;;;;;8.38;75.27;103181.72;5008237;28;46604;-55
2022/01/17 00:13:26;;;;;;;;;43.00;29.50;;;;;8.39;75.30;103183.47;5009671;28;45506;-55
2022/01/17 00:15:58;;;;;;;;;57.75;34.50;;;;;8.39;75.31;103186.09;5009239;28;45483;-55
2022/01/17 00:18:51;;;;;;;;;38.25;32.50;;;;;8.42;75.14;103186.94;5010202;28;45721;-55
2022/01/17 00:21:09;;;;;;;;;39.00;26.75;;;;;8.43;75.26;103181.66;5009582;28;45452;-56
2022/01/17 00:23:34;;;;;;;;;39.00;29.75;;;;;8.43;75.63;103186.03;5007959;28;45473;-56
2022/01/17 00:26:00;;;;;;;;;37.00;31.25;;;;;8.45;75.33;103177.25;5006135;28;45436;-56
2022/01/17 00:28:25;;;;;;;;;27.00;22.75;;;;;8.45;75.54;103171.13;5007031;28;45660;-56
2022/01/17 00:30:52;;;;;;;;;38.75;31.75;;;;;8.44;75.49;103166.75;5007725;28;46267;-56
2022/01/17 00:33:17;;;;;;;;;35.50;32.00;;;;;8.45;75.64;103172.00;5007809;28;45445;-55
2022/01/17 00:35:43;;;;;;;;;36.50;31.00;;;;;8.46;75.83;103167.63;5009313;28;45542;-55
2022/01/17 00:38:11;;;;;;;;;34.75;27.00;;;;;8.45;75.60;103163.25;5009466;28;46679;-55
2022/01/17 00:40:36;;;;;;;;;34.50;32.50;;;;;8.45;75.51;103171.13;5012605;28;45485;-55
2022/01/17 00:43:02;;;;;;;;;42.75;32.00;;;;;8.45;75.54;103181.63;5009654;28;45577;-55
2022/01/17 00:45:29;;;;;;;;;39.00;29.25;;;;;8.44;75.60;103188.63;5008144;28;45537;-55
2022/01/17 00:47:57;;;;;;;;;36.00;29.00;;;;;8.44;75.36;103175.50;5008605;28;45438;-55
2022/01/17 00:50:28;;;;;;;;;38.75;27.50;;;;;8.47;75.59;103185.13;5006447;28;46433;-55
2022/01/17 00:52:54;;;;;;;;;42.25;34.00;;;;;8.46;75.60;103183.41;5007259;28;45466;-56
2022/01/17 00:55:20;;;;;;;;;38.50;29.75;;;;;8.46;75.30;103181.63;5007145;28;45554;-56
2022/01/17 00:57:45;;;;;;;;;38.50;31.75;;;;;8.47;75.41;103182.50;5007378;28;45517;-55
2022/01/17 01:00:11;;;;;;;;;37.25;30.25;;;;;8.48;75.16;103177.22;5008030;28;46230;-56
2022/01/17 01:02:37;;;;;;;;;34.25;30.25;;;;;8.49;75.56;103175.47;5010658;28;45644;-55
2022/01/17 01:05:05;;;;;;;;;34.75;31.00;;;;;8.49;75.56;103175.47;5008422;28;45527;-55
2022/01/17 01:07:31;;;;;;;;;38.50;29.75;;;;;8.49;75.44;103171.09;5012198;28;45497;-56
2022/01/17 01:10:04;;;;;;;;;28.50;26.75;;;;;8.50;75.09;103177.22;5006785;28;45602;-56
2022/01/17 01:12:30;;;;;;;;;33.75;30.50;;;;;8.54;75.14;103176.31;5006789;28;45640;-54
2022/01/17 01:14:56;;;;;;;;;40.00;32.00;;;;;8.53;75.21;103170.19;5006301;28;45586;-56
2022/01/17 01:17:34;;;;;;;;;39.25;31.50;;;;;8.54;74.87;103169.28;5006400;28;45368;-56
2022/01/17 01:20:14;;;;;;;;;32.25;27.75;;;;;8.54;75.17;103168.41;5008323;28;46315;-56
2022/01/17 01:28:07;;;;;;;;;36.50;28.50;;;;;8.52;75.47;103170.16;5010016;28;45705;-56
2022/01/17 01:30:35;;;;;;;;;34.00;31.25;;;;;8.51;74.99;103171.94;5007091;28;46075;-56
2022/01/17 01:33:01;;;;;;;;;32.25;29.00;;;;;8.51;75.01;103171.06;5006862;28;45605;-56
2022/01/17 01:35:29;;;;;;;;;33.75;29.75;;;;;8.50;75.25;103167.56;5006538;28;45782;-56
2022/01/17 01:37:55;;;;;;;;;34.75;28.50;;;;;8.49;75.01;103159.72;5009188;28;45526;-56
2022/01/17 01:40:21;;;;;;;;;36.75;29.50;;;;;8.50;74.98;103167.56;5010695;28;46136;-56
2022/01/17 01:42:48;;;;;;;;;31.25;24.25;;;;;8.52;75.35;103180.66;5010586;28;45436;-55
2022/01/17 01:45:15;;;;;;;;;37.50;31.25;;;;;8.50;75.38;103175.44;5010529;28;45374;-56
2022/01/17 01:47:41;;;;;;;;;33.25;30.25;;;;;8.53;75.30;103182.41;5011537;28;45456;-56
2022/01/17 01:50:10;;;;;;;;;43.00;30.00;;;;;8.53;75.22;103178.06;5011983;28;45455;-56
2022/01/17 01:52:37;;;;;;;;;29.00;28.00;;;;;8.54;75.13;103185.03;5011370;28;45512;-55
2022/01/17 01:55:03;;;;;;;;;34.00;24.50;;;;;8.55;74.79;103180.66;5010343;28;45494;-56
2022/01/17 01:57:28;;;;;;;;;39.25;32.50;;;;;8.56;75.31;103188.50;5011395;28;45319;-55
2022/01/17 01:59:55;;;;;;;;;34.25;29.00;;;;;8.56;75.25;103187.66;5010473;28;45540;-56
2022/01/17 02:02:21;;;;;;;;;38.00;33.25;;;;;8.56;74.99;103193.78;5011918;28;45518;-56
2022/01/17 02:04:46;;;;;;;;;36.50;26.00;;;;;8.57;75.25;103192.00;5011950;28;45503;-57
2022/01/17 02:07:13;;;;;;;;;41.25;31.50;;;;;8.53;74.83;103188.56;5012354;28;45601;-57
2022/01/17 02:09:38;;;;;;;;;29.75;27.25;;;;;8.49;74.88;103197.34;5010383;28;45569;-57
2022/01/17 02:12:04;;;;;;;;;35.25;27.50;;;;;8.44;75.35;103188.63;5008675;28;45515;-56
2022/01/17 02:14:30;;;;;;;;;38.50;31.00;;;;;8.44;75.16;103187.78;5008965;28;45573;-56
2022/01/17 02:17:01;;;;;;;;;35.00;31.25;;;;;8.44;75.16;103198.28;5014284;28;45498;-56
2022/01/17 02:19:28;;;;;;;;;39.25;31.25;;;;;8.41;75.12;103187.81;5001760;28;45455;-56
2022/01/17 02:21:54;;;;;;;;;44.00;33.50;;;;;8.41;75.26;103182.56;5002534;28;45463;-56
2022/01/17 02:24:21;;;;;;;;;40.75;31.25;;;;;8.44;75.51;103182.53;5002510;28;45435;-56
2022/01/17 02:26:50;;;;;;;;;34.00;30.50;;;;;8.44;75.31;103179.91;5002643;28;45241;-56
2022/01/17 02:29:15;;;;;;;;;32.50;26.75;;;;;8.45;75.43;103184.25;5002298;28;45677;-57
2022/01/17 02:31:43;;;;;;;;;33.00;27.25;;;;;8.45;75.36;103185.13;5002145;28;45353;-56
2022/01/17 02:34:09;;;;;;;;;35.50;31.00;;;;;8.45;75.68;103177.25;5002473;28;45407;-57
2022/01/17 02:36:35;;;;;;;;;36.75;31.50;;;;;8.46;75.67;103178.16;5002245;28;45351;-55
2022/01/17 02:39:03;;;;;;;;;38.75;28.00;;;;;8.47;75.13;103178.13;5004847;28;45477;-54
2022/01/17 02:41:31;;;;;;;;;33.75;30.75;;;;;8.48;75.38;103176.34;5020020;28;45457;-56
2022/01/17 02:43:57;;;;;;;;;44.00;34.50;;;;;8.48;75.42;103176.34;5022430;28;45599;-56
2022/01/17 02:46:26;;;;;;;;;41.25;30.25;;;;;8.47;75.10;103174.63;5021868;28;45400;-56
2022/01/17 02:48:52;;;;;;;;;42.50;31.50;;;;;8.47;75.31;103170.25;5021460;28;45358;-57
2022/01/17 02:51:18;;;;;;;;;37.50;29.75;;;;;8.43;75.38;103165.91;5021719;28;45332;-56
2022/01/17 02:53:43;;;;;;;;;35.00;29.50;;;;;8.41;75.71;103166.81;5018695;28;45418;-56
2022/01/17 02:56:10;;;;;;;;;40.75;35.75;;;;;8.37;75.47;103169.47;5019272;28;45206;-56
2022/01/17 02:58:37;;;;;;;;;46.50;37.00;;;;;8.37;75.47;103176.47;5021570;28;46008;-55
2022/01/17 03:01:11;;;;;;;;;44.50;37.75;;;;;8.36;75.88;103180.84;5021418;28;45466;-56
2022/01/17 03:03:37;;;;;;;;;40.75;36.75;;;;;8.36;75.63;103187.84;5021874;28;45385;-54
2022/01/17 03:06:03;;;;;;;;;40.50;31.75;;;;;8.39;75.76;103186.09;5021633;28;45458;-55
2022/01/17 03:08:32;;;;;;;;;35.75;30.25;;;;;8.41;75.99;103188.69;5009370;28;45439;-54
2022/01/17 03:11:00;;;;;;;;;41.75;31.50;;;;;8.41;75.85;103190.44;5001678;28;45388;-53
2022/01/17 03:13:32;;;;;;;;;35.25;33.50;;;;;8.40;75.53;103192.19;5001878;28;45693;-56
2022/01/17 03:16:00;;;;;;;;;34.50;26.50;;;;;8.43;75.79;103200.03;5008456;28;45388;-56
2022/01/17 03:18:30;;;;;;;;;34.00;29.25;;;;;8.44;75.73;103204.41;5020602;28;45655;-53
2022/01/17 03:20:56;;;;;;;;;42.75;35.75;;;;;8.44;75.85;103203.53;5021286;28;45472;-56
2022/01/17 03:23:22;;;;;;;;;36.50;32.25;;;;;8.46;75.58;103209.66;5021450;28;45161;-56
2022/01/17 03:25:48;;;;;;;;;40.75;33.75;;;;;8.45;75.95;103205.28;5021572;28;45363;-56
2022/01/17 03:28:14;;;;;;;;;47.75;38.75;;;;;8.45;75.75;103200.88;5021245;28;46180;-55
2022/01/17 03:30:40;;;;;;;;;53.00;36.50;;;;;8.45;75.46;103195.63;5020309;28;45374;-55
2022/01/17 03:33:11;;;;;;;;;55.50;43.00;;;;;8.43;75.98;103207.91;5012819;28;45427;-54
2022/01/17 03:35:39;;;;;;;;;66.50;47.50;;;;;8.39;75.62;103212.34;5010121;28;45630;-54
2022/01/17 03:38:06;;;;;;;;;62.00;45.00;;;;;8.36;75.99;103214.13;5010966;28;45383;-56
2022/01/17 03:40:33;;;;;;;;;60.00;46.50;;;;;8.34;75.67;103211.47;5008510;28;45591;-55
2022/01/17 03:42:58;;;;;;;;;62.50;48.00;;;;;8.29;76.00;103205.41;5008120;28;45553;-56
2022/01/17 03:45:24;;;;;;;;;55.50;39.75;;;;;8.28;75.97;103208.03;5008933;28;45631;-56
2022/01/17 03:47:51;;;;;;;;;58.25;40.75;;;;;8.28;75.87;103201.03;5006133;28;45815;-55
2022/01/17 03:50:19;;;;;;;;;49.00;41.75;;;;;8.25;76.17;103222.09;5007585;28;45395;-55
2022/01/17 03:52:45;;;;;;;;;49.50;37.25;;;;;8.23;76.31;103220.38;5007670;28;45617;-54
2022/01/17 03:55:13;;;;;;;;;58.75;42.25;;;;;8.23;76.19;103223.00;5005772;28;45317;-54
2022/01/17 03:57:39;;;;;;;;;32.75;25.50;;;;;8.20;75.66;103228.25;5006757;28;45633;-56
2022/01/17 04:00:07;;;;;;;;;53.75;40.00;;;;;8.21;76.23;103225.59;5007262;28;45518;-55
2022/01/17 04:02:33;;;;;;;;;50.75;40.75;;;;;8.21;76.00;103228.22;5005199;28;45495;-56
2022/01/17 04:04:58;;;;;;;;;46.50;38.00;;;;;8.21;76.34;103227.38;5008468;28;45721;-55
2022/01/17 04:07:24;;;;;;;;;48.00;41.25;;;;;8.23;76.29;103238.75;5009630;28;45499;-56
2022/01/17 04:09:49;;;;;;;;;53.00;42.00;;;;;8.24;76.06;103233.47;5008184;28;45675;-56
2022/01/17 04:12:15;;;;;;;;;65.00;47.00;;;;;8.24;76.02;103230.84;5004988;28;45368;-55
2022/01/17 04:14:40;;;;;;;;;62.75;48.00;;;;;8.25;76.41;103244.84;5007854;28;45622;-56
2022/01/17 04:17:06;;;;;;;;;63.00;47.75;;;;;8.25;76.55;103247.47;5009735;28;46117;-54
2022/01/17 04:19:33;;;;;;;;;60.25;48.25;;;;;8.23;76.28;103244.00;5009917;28;45541;-55
2022/01/17 04:21:59;;;;;;;;;46.25;39.25;;;;;8.27;76.42;103261.44;5006320;28;45719;-55
2022/01/17 04:24:25;;;;;;;;;52.00;42.75;;;;;8.25;76.41;103256.22;5007409;28;45434;-55
2022/01/17 04:26:50;;;;;;;;;45.25;36.75;;;;;8.25;76.58;103256.22;5004712;28;45633;-55
2022/01/17 04:29:16;;;;;;;;;51.25;40.00;;;;;8.26;76.41;103251.84;5007175;28;45411;-55
2022/01/17 04:31:41;;;;;;;;;44.00;38.00;;;;;8.29;76.57;103247.41;5008317;28;45666;-55
2022/01/17 04:34:07;;;;;;;;;47.50;38.50;;;;;8.32;76.40;103242.16;5008325;28;46237;-56
2022/01/17 04:36:32;;;;;;;;;45.25;39.00;;;;;8.33;76.21;103238.63;5010860;28;45840;-54
2022/01/17 04:38:58;;;;;;;;;45.00;40.50;;;;;8.34;76.18;103240.38;5009082;28;45391;-56
2022/01/17 04:41:35;;;;;;;;;55.25;38.25;;;;;8.35;76.22;103243.91;5007790;28;45371;-54
2022/01/17 04:45:07;;;;;;;;;44.75;36.75;;;;;8.36;76.28;103245.63;5009044;28;45919;-55
2022/01/17 04:46:46;;;;;;;;;50.25;40.00;;;;;8.35;76.33;103243.91;5010030;28;46026;-55
2022/01/17 04:49:12;;;;;;;;;55.75;40.00;;;;;8.35;75.93;103238.66;5009656;28;46022;-55
2022/01/17 04:51:38;;;;;;;;;49.50;38.75;;;;;8.36;76.30;103245.63;5008898;28;45375;-56
2022/01/17 04:56:44;;;;;;;;;47.25;36.25;;;;;8.34;75.88;103250.88;5008662;28;45433;-55
2022/01/17 04:59:10;;;;;;;;;44.75;36.75;;;;;8.30;76.19;103246.56;5005720;28;45584;-56
2022/01/17 05:01:35;;;;;;;;;51.50;39.50;;;;;8.26;76.13;103242.19;5006337;28;45323;-55
2022/01/17 05:04:01;;;;;;;;;43.50;36.00;;;;;8.20;76.09;103230.88;5007751;28;45368;-55
2022/01/17 05:06:26;;;;;;;;;46.75;37.25;;;;;8.14;76.14;103234.44;5007403;28;45352;-55
2022/01/17 05:08:52;;;;;;;;;40.75;35.50;;;;;8.08;76.15;103242.38;5007437;28;45538;-56
2022/01/17 05:11:18;;;;;;;;;47.50;35.00;;;;;8.01;76.07;103245.94;5007746;28;45561;-56
2022/01/17 05:13:47;;;;;;;;;44.25;38.25;;;;;7.93;76.08;103245.13;5014172;28;45717;-55
2022/01/17 05:16:15;;;;;;;;;52.75;41.50;;;;;7.88;76.15;103258.28;5011915;28;45383;-55
2022/01/17 05:21:06;;;;;;;;;42.75;37.75;;;;;7.78;76.52;103254.84;5011205;28;45630;-55
2022/01/17 05:23:32;;;;;;;;;41.50;32.75;;;;;7.74;76.50;103263.66;5009040;28;45447;-55
2022/01/17 05:25:58;;;;;;;;;46.25;39.50;;;;;7.70;76.48;103264.53;5009603;28;45763;-54
2022/01/17 05:28:23;;;;;;;;;44.50;39.75;;;;;7.65;76.73;103261.06;5010224;28;45757;-54
2022/01/17 05:30:49;;;;;;;;;47.00;40.50;;;;;7.60;76.55;103264.63;5010008;28;45415;-55
2022/01/17 05:33:14;;;;;;;;;51.50;40.00;;;;;7.55;76.72;103264.63;5012579;28;45451;-55
2022/01/17 05:35:40;;;;;;;;;42.50;35.75;;;;;7.49;76.60;103260.28;5010225;28;45598;-56
2022/01/17 05:38:05;;;;;;;;;43.25;38.25;;;;;7.48;76.81;103269.03;5008419;28;45736;-56
2022/01/17 05:40:31;;;;;;;;;42.75;38.00;;;;;7.47;76.82;103271.66;5011063;28;45508;-56
2022/01/17 05:42:56;;;;;;;;;48.75;40.00;;;;;7.46;76.64;103277.81;5017561;28;45301;-56
2022/01/17 05:45:22;;;;;;;;;49.25;35.50;;;;;7.43;76.86;103275.22;5019756;28;45895;-55
2022/01/17 05:47:48;;;;;;;;;44.00;37.75;;;;;7.42;76.97;103274.31;5009706;28;45359;-53
2022/01/17 05:50:15;;;;;;;;;45.75;38.00;;;;;7.43;76.63;103277.84;5010175;28;45436;-56
2022/01/17 05:52:41;;;;;;;;;49.50;38.50;;;;;7.43;77.24;103297.06;5010463;28;45509;-56
2022/01/17 05:55:11;;;;;;;;;54.00;36.25;;;;;7.43;77.51;103293.56;5008233;28;45456;-55
2022/01/17 05:57:38;;;;;;;;;47.00;38.00;;;;;7.42;77.24;103283.94;5004849;28;45312;-55
2022/01/17 06:00:07;;;;;;;;;59.75;41.25;;;;;7.41;77.24;103295.31;5009622;28;45714;-55
2022/01/17 06:02:33;;;;;;;;;54.00;42.75;;;;;7.39;77.03;103286.56;5006798;28;45416;-55
2022/01/17 06:04:58;;;;;;;;;41.75;33.75;;;;;7.37;77.25;103288.34;5008123;28;45910;-53
2022/01/17 06:07:23;;;;;;;;;49.75;36.75;;;;;7.35;77.08;103285.75;5015812;28;45369;-52
2022/01/17 06:09:49;;;;;;;;;44.75;37.50;;;;;7.33;77.02;103281.34;5002786;28;45436;-55
2022/01/17 06:12:15;;;;;;;;;47.75;38.00;;;;;7.29;77.19;103285.75;5002960;28;45265;-55
2022/01/17 06:14:40;;;;;;;;;45.75;37.75;;;;;7.26;77.23;103278.75;5002133;28;46202;-55
2022/01/17 06:17:06;;;;;;;;;57.00;43.75;;;;;7.25;77.20;103289.25;5002361;28;45263;-55
2022/01/17 06:19:31;;;;;;;;;49.25;40.75;;;;;7.20;76.82;103288.44;5002636;28;45352;-54
2022/01/17 06:21:57;;;;;;;;;49.00;40.50;;;;;7.18;77.12;103293.66;5001993;28;45451;-54
2022/01/17 06:24:23;;;;;;;;;46.75;38.50;;;;;7.15;77.20;103300.66;5002288;28;46023;-54
2022/01/17 06:26:50;;;;;;;;;48.75;38.75;;;;;7.10;77.95;103298.06;5002077;28;45226;-55
2022/01/17 06:29:17;;;;;;;;;57.00;41.75;;;;;7.09;78.20;103305.94;5002267;28;45230;-54
2022/01/17 06:31:44;;;;;;;;;53.75;39.50;;;;;7.06;78.08;103314.69;5002253;28;45584;-55
2022/01/17 06:34:10;;;;;;;;;52.25;39.50;;;;;7.06;78.17;103324.28;5002149;28;45347;-53
2022/01/17 06:36:36;;;;;;;;;51.50;42.75;;;;;7.06;78.18;103326.91;5002029;28;45363;-55
2022/01/17 06:39:04;;;;;;;;;51.25;40.25;;;;;7.04;78.23;103321.69;5005207;28;45415;-55
2022/01/17 06:41:30;;;;;;;;;51.00;41.00;;;;;7.04;77.87;103328.69;5005266;28;45475;-54
2022/01/17 06:43:56;;;;;;;;;54.00;42.75;;;;;7.03;78.12;103345.25;5002045;28;46075;-55
2022/01/17 06:46:22;;;;;;;;;51.50;41.25;;;;;7.03;77.96;103351.41;5001842;28;45772;-54
2022/01/17 06:48:48;;;;;;;;;51.50;39.75;;;;;7.02;77.86;103349.63;5002282;28;45551;-54
2022/01/17 06:51:14;;;;;;;;;52.75;42.00;;;;;7.02;78.01;103364.47;5002242;28;45273;-54
2022/01/17 06:53:42;;;;;;;;;52.00;41.75;;;;;7.02;77.94;103359.22;5002223;28;45376;-53
2022/01/17 06:56:09;;;;;;;;;62.00;47.00;;;;;7.02;77.63;103357.47;5018958;28;45308;-54
2022/01/17 06:58:36;;;;;;;;;56.25;42.50;;;;;6.99;77.59;103339.16;5021731;28;45297;-53
2022/01/17 07:01:02;;;;;;;;;57.00;42.25;;;;;6.97;77.99;103339.16;5021481;28;45379;-54
2022/01/17 07:03:28;;;;;;;;;53.50;44.75;;;;;6.95;77.95;103329.53;5010068;28;45288;-54
2022/01/17 07:05:53;;;;;;;;;61.75;43.25;;;;;6.94;77.98;103339.16;5018966;28;45320;-54
2022/01/17 07:08:19;;;;;;;;;60.50;45.00;;;;;6.91;77.62;103341.78;5011114;28;45421;-53
2022/01/17 07:10:45;;;;;;;;;55.25;44.25;;;;;6.90;77.74;103341.81;5000496;28;45375;-53
2022/01/17 07:13:10;;;;;;;;;61.00;44.25;;;;;6.89;77.59;103356.66;5001652;28;45772;-54
2022/01/17 07:15:36;;;;;;;;;58.75;48.75;;;;;6.87;77.59;103370.63;5001520;28;45388;-52
2022/01/17 07:18:02;;;;;;;;;63.50;45.75;;;;;6.86;77.60;103379.34;5001962;28;45356;-54
2022/01/17 07:20:28;;;;;;;;;61.00;45.50;;;;;6.84;77.42;103400.31;5001653;28;45308;-54
2022/01/17 07:22:53;;;;;;;;;27.50;20.25;;;;;6.82;77.47;103412.56;5001915;28;45293;-54
2022/01/17 07:25:19;;;;;;;;;71.75;48.25;;;;;6.80;77.37;103410.81;5001682;28;45249;-54
2022/01/17 07:27:44;;;;;;;;;55.00;45.00;;;;;6.77;77.70;103413.44;5002048;28;45424;-55
2022/01/17 07:30:11;;;;;;;;;60.75;43.00;;;;;6.77;77.27;103397.72;5001409;28;45284;-56
2022/01/17 07:32:38;;;;;;;;;57.75;45.00;;;;;6.73;77.62;103389.00;5001397;28;46560;-54
2022/01/17 07:35:05;;;;;;;;;63.00;46.75;;;;;6.71;77.71;103382.84;5016065;28;45434;-53
2022/01/17 07:37:31;;;;;;;;;63.75;47.25;;;;;6.71;77.74;103378.53;5010990;28;45325;-53
2022/01/17 07:39:57;;;;;;;;;62.25;47.50;;;;;6.69;77.63;103380.25;5007680;28;45597;-54
2022/01/17 07:42:22;;;;;;;;;59.75;44.25;;;;;6.68;77.59;103381.13;5001559;28;45584;-54
2022/01/17 07:44:53;;;;;;;;;54.50;45.00;;;;;6.68;77.61;103377.63;5001365;28;45258;-54
2022/01/17 07:47:27;;;;;;;;;63.25;47.25;;;;;6.67;77.51;103378.50;5001625;28;45388;-52
2022/01/17 07:49:52;;;;;;;;;64.75;50.25;;;;;6.67;77.29;103384.63;5001544;28;45435;-54
2022/01/17 07:52:18;;;;;;;;;53.75;45.25;;;;;6.66;77.69;103387.25;5001464;28;45958;-57
2022/01/17 07:54:47;;;;;;;;;63.00;45.50;;;;;6.68;77.66;103402.09;5006410;28;45377;-54
2022/01/17 07:57:13;;;;;;;;;55.25;44.50;;;;;6.67;78.03;103397.72;5005790;28;45600;-55
2022/01/17 07:59:39;;;;;;;;;57.50;43.75;;;;;6.67;77.90;103404.69;5006799;28;45329;-54
2022/01/17 08:02:05;;;;;;;;;48.50;37.25;;;;;6.69;77.59;103414.31;5010471;28;46203;-54
2022/01/17 08:04:30;;;;;;;;;60.00;43.00;;;;;6.70;77.57;103408.19;5011577;28;45248;-54
2022/01/17 08:06:56;;;;;;;;;54.25;44.00;;;;;6.72;77.79;103402.97;5012890;28;45427;-55
2022/01/17 08:09:26;;;;;;;;;65.25;47.25;;;;;6.74;77.58;103398.59;5013837;28;45566;-53
2022/01/17 08:11:52;;;;;;;;;55.00;44.50;;;;;6.77;78.01;103402.94;5007562;28;46154;-55
2022/01/17 08:14:17;;;;;;;;;43.75;33.75;;;;;6.79;77.55;103412.53;5009141;28;45480;-54
2022/01/17 08:16:43;;;;;;;;;57.00;42.50;;;;;6.83;78.00;103409.06;5011828;28;45380;-54
2022/01/17 08:19:09;;;;;;;;;53.25;41.50;;;;;6.88;77.87;103411.69;5013934;28;45232;-54
2022/01/17 08:21:34;;;;;;;;;57.25;43.25;;;;;6.91;77.39;103420.41;5013122;28;45292;-53
2022/01/17 08:24:00;;;;;;;;;58.75;44.00;;;;;6.96;77.58;103430.91;5006551;28;45453;-54
2022/01/17 08:26:26;;;;;;;;;55.00;41.50;;;;;6.99;77.97;103426.50;5008114;28;45221;-54
2022/01/17 08:28:52;;;;;;;;;49.00;42.00;;;;;7.02;77.47;103425.63;5014834;28;45372;-52
2022/01/17 08:31:19;;;;;;;;;62.25;46.00;;;;;7.07;77.77;103420.38;5006491;28;45475;-55
2022/01/17 08:33:45;;;;;;;;;57.00;43.00;;;;;7.12;77.40;103416.88;5009009;28;45490;-54
2022/01/17 08:36:11;;;;;;;;;64.25;49.25;;;;;7.18;77.44;103423.84;5007737;28;45409;-54
2022/01/17 08:38:38;;;;;;;;;51.25;43.75;;;;;7.24;77.39;103427.34;5016112;28;45386;-53
2022/01/17 08:41:04;;;;;;;;;66.50;49.25;;;;;7.33;77.31;103433.44;5006952;28;46172;-55
2022/01/17 08:43:30;;;;;;;;;59.50;45.25;;;;;7.45;77.25;103450.03;5013526;28;45240;-54
2022/01/17 08:45:56;;;;;;;;;58.00;45.25;;;;;7.61;77.33;103442.09;5009013;28;45281;-54
2022/01/17 08:48:21;;;;;;;;;64.00;46.00;;;;;7.74;76.88;103443.78;5020356;28;45507;-55
2022/01/17 08:50:48;;;;;;;;;54.00;42.25;;;;;7.86;76.83;103442.88;5023875;28;45391;-56
2022/01/17 08:53:15;;;;;;;;;55.00;35.00;;;;;7.97;76.80;103441.91;5023947;28;45415;-55
2022/01/17 08:55:43;;;;;;;;;62.25;44.50;;;;;8.05;76.43;103436.63;5014058;28;45379;-56
2022/01/17 08:58:10;;;;;;;;;58.25;46.25;;;;;8.15;76.21;103445.34;5022344;28;45782;-56
2022/01/17 09:00:37;;;;;;;;;68.75;50.50;;;;;8.21;75.99;103447.91;5008433;28;46304;-56
2022/01/17 09:03:03;;;;;;;;;64.25;49.25;;;;;8.26;75.92;103444.41;5002544;28;45532;-56
2022/01/17 09:05:30;;;;;;;;;53.75;41.75;;;;;8.32;75.58;103446.13;5002506;28;45844;-56
2022/01/17 09:07:56;;;;;;;;;54.00;44.50;;;;;8.38;75.53;103440.88;5002755;28;45501;-55
2022/01/17 09:10:21;;;;;;;;;53.25;40.00;;;;;8.43;75.72;103449.56;5002697;28;45544;-55
2022/01/17 09:12:47;;;;;;;;;60.75;42.75;;;;;8.48;75.05;103447.78;5003556;28;45336;-55
2022/01/17 09:15:13;;;;;;;;;57.50;42.75;;;;;8.55;75.25;103451.25;5003670;28;45232;-56
2022/01/17 09:17:39;;;;;;;;;56.00;41.25;;;;;8.58;74.78;103464.34;5003793;28;45481;-56
2022/01/17 09:20:06;;;;;;;;;50.50;39.50;;;;;8.61;75.06;103475.72;5003775;28;45263;-54
2022/01/17 09:22:32;;;;;;;;;46.75;38.25;;;;;8.62;74.21;103480.09;5004031;28;45412;-56
2022/01/17 09:24:58;;;;;;;;;57.00;43.00;;;;;8.63;74.31;103489.72;5003772;28;45353;-56
2022/01/17 09:27:23;;;;;;;;;57.00;46.00;;;;;8.68;74.18;103492.28;5003842;28;45500;-56
2022/01/17 09:29:49;;;;;;;;;61.75;48.75;;;;;8.70;74.45;103489.69;5003171;28;45331;-56
2022/01/17 09:32:14;;;;;;;;;66.75;48.75;;;;;8.74;74.14;103497.50;5009471;28;45428;-55
2022/01/17 09:34:42;;;;;;;;;37.50;30.25;;;;;8.80;73.65;103501.88;5009631;28;45300;-55
2022/01/17 09:37:09;;;;;;;;;39.25;35.75;;;;;8.86;73.73;103515.84;5003728;28;45527;-56
2022/01/17 09:39:35;;;;;;;;;43.50;35.50;;;;;8.93;73.72;103511.41;5009765;28;45455;-56
2022/01/17 09:42:02;;;;;;;;;37.50;31.75;;;;;9.00;73.52;103514.84;5003468;28;45249;-56
2022/01/17 09:44:27;;;;;;;;;45.75;37.25;;;;;9.00;73.29;103501.69;5003043;28;45241;-57
2022/01/17 09:46:56;;;;;;;;;34.50;27.50;;;;;9.03;72.69;103501.69;5002963;28;45349;-56
2022/01/17 09:49:33;;;;;;;;;37.50;26.75;;;;;9.00;73.08;103492.03;5002659;28;46383;-56
2022/01/17 09:52:05;;;;;;;;;34.25;30.50;;;;;9.01;72.43;103500.84;5003266;28;45189;-56
2022/01/17 09:54:35;;;;;;;;;39.25;30.00;;;;;8.98;73.03;103520.09;5003246;28;45399;-55
2022/01/17 09:57:08;;;;;;;;;35.00;29.75;;;;;9.00;72.75;103527.97;5018535;28;45221;-55
2022/01/17 09:59:36;;;;;;;;;40.00;35.25;;;;;9.01;72.84;103529.75;5022715;28;46153;-54
2022/01/17 10:02:03;;;;;;;;;41.25;31.75;;;;;9.04;72.47;103534.97;5022756;28;45371;-55
2022/01/17 10:04:29;;;;;;;;;39.75;31.00;;;;;9.01;72.78;103545.53;5023222;28;45442;-56
2022/01/17 10:06:57;;;;;;;;;37.25;31.75;;;;;9.03;72.77;103539.34;5022837;28;45351;-54
2022/01/17 10:09:24;;;;;;;;;41.50;34.00;;;;;9.07;72.43;103541.06;5010646;28;46954;-56
2022/01/17 10:12:11;;;;;;;;;47.50;33.50;;;;;9.08;72.10;103539.31;5020304;28;45244;-55
2022/01/17 10:15:05;;;;;;;;;38.25;32.75;;;;;9.08;72.68;103541.94;5022566;28;45226;-54
2022/01/17 10:17:47;;;;;;;;;33.50;30.50;;;;;9.10;72.37;103543.69;5022700;28;45266;-55
2022/01/17 10:20:17;;;;;;;;;43.25;36.50;;;;;9.12;72.16;103547.16;5022096;28;45607;-56
2022/01/17 10:22:52;;;;;;;;;45.00;33.75;;;;;9.17;72.11;103550.66;5022518;28;45251;-55
2022/01/17 10:25:37;;;;;;;;;43.50;35.75;;;;;9.18;71.89;103536.59;5022500;28;45360;-55
2022/01/17 10:31:33;;;;;;;;;45.50;36.75;;;;;9.13;72.52;103545.41;5021786;28;45372;-56
2022/01/17 10:36:44;;;;;;;;;43.75;32.00;;;;;9.19;72.40;103548.88;5022640;28;45304;-55
2022/01/17 10:39:10;;;;;;;;;37.00;29.50;;;;;9.22;72.04;103558.47;5019466;28;45249;-53
2022/01/17 10:41:36;;;;;;;;;38.00;29.00;;;;;9.26;72.25;103556.72;5002514;28;45349;-56
2022/01/17 10:44:01;;;;;;;;;38.25;31.25;;;;;9.30;72.33;103558.41;5014551;28;45275;-56
2022/01/17 10:46:27;;;;;;;;;46.75;37.25;;;;;9.34;72.03;103563.66;5002210;28;45479;-54
2022/01/17 10:48:53;;;;;;;;;44.25;36.00;;;;;9.38;71.97;103549.56;5002469;28;45227;-55
2022/01/17 10:51:38;;;;;;;;;37.75;34.75;;;;;9.42;71.92;103534.63;5002222;28;46256;-54
2022/01/17 10:54:14;;;;;;;;;44.25;35.25;;;;;9.45;71.40;103531.97;5002223;28;45478;-56
2022/01/17 10:57:09;;;;;;;;;47.50;38.25;;;;;9.42;71.83;103501.31;5014598;28;45463;-56
2022/01/17 10:59:36;;;;;;;;;46.00;36.75;;;;;9.41;71.41;103504.81;5006720;28;45320;-55
2022/01/17 11:02:02;;;;;;;;;46.00;34.00;;;;;9.47;71.90;103501.25;5001799;28;46535;-56
2022/01/17 11:04:38;;;;;;;;;49.50;36.75;;;;;9.47;71.61;103504.75;5002236;28;45324;-55
2022/01/17 11:07:06;;;;;;;;;46.75;37.00;;;;;9.49;71.32;103502.13;5002393;28;45170;-54
2022/01/17 11:09:49;;;;;;;;;42.00;38.00;;;;;9.56;71.92;103522.22;5005228;28;45254;-55
2022/01/17 11:12:18;;;;;;;;;49.25;39.25;;;;;9.54;71.65;103513.44;5009464;28;45180;-55
2022/01/17 11:14:46;;;;;;;;;45.75;38.75;;;;;9.56;71.46;103514.31;5021528;28;45319;-56
2022/01/17 11:17:22;;;;;;;;;47.25;37.25;;;;;9.63;71.58;103523.00;5022082;28;45346;-55
2022/01/17 11:20:07;;;;;;;;;51.25;38.00;;;;;9.71;71.31;103513.25;5021974;28;45257;-55
2022/01/17 11:22:37;;;;;;;;;40.50;32.50;;;;;9.77;71.30;103515.81;5021747;28;45513;-55
2022/01/17 11:25:06;;;;;;;;;48.25;37.25;;;;;9.76;70.86;103512.31;5021656;28;45309;-56
2022/01/17 11:27:32;;;;;;;;;44.75;33.50;;;;;9.73;71.32;103519.41;5021861;28;45387;-57
2022/01/17 11:29:59;;;;;;;;;48.00;39.25;;;;;9.75;71.30;103504.44;5021356;28;45234;-56
2022/01/17 11:32:25;;;;;;;;;41.00;32.25;;;;;9.79;71.03;103498.25;5021255;28;46231;-56
2022/01/17 11:34:53;;;;;;;;;50.50;38.00;;;;;9.84;70.99;103501.72;5021506;28;45233;-56